Terminal Aerodrome Forecast
Issued by NWS

Home | Current Version | Previous Version | Text Only | Print | Product List | Glossary On
Versions: 1 2 3 4 5 6 7 8 9 10 11 12 13 14
526
FTUS45 KRIW 301120
TAFLND
TAF
KLND 301120Z 3012/3112 VRB05KT P6SM SCT100
     FM302100 VRB06KT P6SM VCTS SCT080CB BKN120
     FM310200 VRB05KT P6SM VCSH FEW080 BKN110
     FM310500 VRB05KT P6SM SCT110=

USA.gov is the U.S. government's official web portal to all federal, state and local government web resources and services.